createdAt,value
2022-09-11T00:00:38.956Z,99.99
2022-09-11T00:01:40.012Z,99.99
2022-09-11T00:02:39.023Z,99.99
2022-09-11T00:03:38.970Z,99.99
2022-09-11T00:04:40.346Z,99.99
2022-09-11T00:05:50.453Z,99.99
2022-09-11T00:06:41.351Z,99.99
2022-09-11T00:07:40.586Z,99.99
2022-09-11T00:08:38.987Z,99.99
2022-09-11T00:09:38.913Z,99.99
2022-09-11T00:10:38.900Z,99.99
2022-09-11T00:11:38.972Z,99.99
2022-09-11T00:12:38.860Z,99.99
2022-09-11T00:13:40.369Z,99.99
2022-09-11T00:14:38.906Z,99.99
2022-09-11T00:15:39.326Z,99.99
2022-09-11T00:16:39.539Z,99.99
2022-09-11T00:17:38.988Z,99.99
2022-09-11T00:18:39.020Z,99.99
2022-09-11T00:19:38.833Z,99.99
2022-09-11T00:20:38.801Z,99.99
2022-09-11T00:21:38.790Z,99.99
2022-09-11T00:22:38.821Z,99.99
2022-09-11T00:23:38.889Z,99.99
2022-09-11T00:24:38.808Z,99.99
2022-09-11T00:25:39.773Z,99.99
2022-09-11T00:26:38.845Z,99.99
2022-09-11T00:27:38.774Z,99.99
2022-09-11T00:28:38.736Z,99.99
2022-09-11T00:29:38.863Z,99.99
2022-09-11T00:30:38.721Z,99.99
2022-09-11T00:31:38.813Z,99.99
2022-09-11T00:32:38.715Z,99.99
2022-09-11T00:33:38.795Z,99.99
2022-09-11T00:34:38.716Z,99.99
2022-09-11T00:35:38.680Z,99.99
2022-09-11T00:36:38.733Z,99.99
2022-09-11T00:37:38.672Z,99.99
2022-09-11T00:38:38.898Z,99.99
2022-09-11T00:39:39.545Z,99.99
2022-09-11T00:40:38.749Z,99.99
2022-09-11T00:41:38.690Z,99.99
2022-09-11T00:42:38.804Z,99.99
2022-09-11T00:43:38.632Z,99.99
2022-09-11T00:44:38.613Z,99.99
2022-09-11T00:45:38.642Z,99.99
2022-09-11T00:46:38.598Z,99.99
2022-09-11T00:47:38.617Z,99.99
2022-09-11T00:48:38.589Z,99.77
2022-09-11T00:49:38.580Z,99.99
2022-09-11T00:50:38.628Z,99.99
2022-09-11T00:51:38.627Z,99.99
2022-09-11T00:52:38.555Z,99.99
2022-09-11T00:53:38.620Z,99.99
2022-09-11T00:54:38.539Z,99.99
2022-09-11T00:55:38.591Z,99.72
2022-09-11T00:56:38.526Z,99.99
2022-09-11T00:57:38.513Z,99.92
2022-09-11T00:58:38.515Z,99.21
2022-09-11T00:59:38.531Z,99.21
2022-09-11T01:00:38.571Z,99.32
2022-09-11T01:01:38.529Z,98.50
2022-09-11T01:02:38.579Z,99.21
2022-09-11T01:03:38.532Z,99.11
2022-09-11T01:04:38.483Z,99.32
2022-09-11T01:05:38.481Z,99.32
2022-09-11T01:06:38.446Z,99.32
2022-09-11T01:07:38.441Z,98.20
2022-09-11T01:08:38.655Z,97.85
2022-09-11T01:09:39.425Z,98.10
2022-09-11T01:10:38.448Z,98.00
2022-09-11T01:11:38.408Z,98.00
2022-09-11T01:12:38.399Z,98.10
2022-09-11T01:13:38.527Z,98.00
2022-09-11T01:14:38.408Z,98.00
2022-09-11T01:15:38.432Z,97.80
2022-09-11T01:16:38.427Z,97.80
2022-09-11T01:17:38.357Z,97.44
2022-09-11T01:18:38.349Z,97.44
2022-09-11T01:19:38.365Z,97.60
2022-09-11T01:20:38.337Z,97.80
2022-09-11T01:21:38.391Z,97.94
2022-09-11T01:22:38.320Z,98.40
2022-09-11T01:23:38.337Z,97.60
2022-09-11T01:24:38.520Z,97.94
2022-09-11T01:25:38.319Z,97.80
2022-09-11T01:26:38.287Z,97.34
2022-09-11T01:27:38.277Z,97.09
2022-09-11T01:28:38.271Z,97.39
2022-09-11T01:29:38.285Z,97.60
2022-09-11T01:30:38.256Z,97.39
2022-09-11T01:31:38.306Z,97.60
2022-09-11T01:32:38.338Z,98.00
2022-09-11T01:33:38.250Z,98.00
2022-09-11T01:34:38.401Z,97.90
2022-09-11T01:35:38.344Z,97.90
2022-09-11T01:36:38.205Z,98.40
2022-09-11T01:37:38.199Z,98.50
2022-09-11T01:38:38.193Z,98.30
2022-09-11T01:39:38.318Z,98.40
2022-09-11T01:40:38.176Z,98.40
2022-09-11T01:41:38.164Z,98.20
2022-09-11T01:42:38.174Z,98.46
2022-09-11T01:43:38.199Z,98.50
2022-09-11T01:44:38.158Z,99.07
2022-09-11T01:45:39.160Z,99.21
2022-09-11T01:46:38.125Z,99.21
2022-09-11T01:47:38.115Z,99.21
2022-09-11T01:48:38.114Z,99.21
2022-09-11T01:49:38.144Z,99.72
2022-09-11T01:50:38.111Z,99.62
2022-09-11T01:51:38.125Z,99.41
2022-09-11T01:52:38.083Z,99.62
2022-09-11T01:53:38.070Z,99.72
2022-09-11T01:54:38.088Z,99.62
2022-09-11T01:55:38.052Z,99.41
2022-09-11T01:56:39.039Z,99.21
2022-09-11T01:57:39.042Z,99.32
2022-09-11T01:58:38.039Z,99.21
2022-09-11T01:59:38.031Z,99.41
2022-09-11T02:00:38.070Z,99.72
2022-09-11T02:01:38.037Z,99.62
2022-09-11T02:02:38.007Z,99.99
2022-09-11T02:03:38.067Z,99.99
2022-09-11T02:04:38.015Z,99.56
2022-09-11T02:05:37.971Z,99.97
2022-09-11T02:06:38.974Z,99.56
2022-09-11T02:07:37.972Z,99.97
2022-09-11T02:08:37.964Z,99.99
2022-09-11T02:09:38.015Z,99.82
2022-09-11T02:10:37.946Z,99.82
2022-09-11T02:11:37.942Z,99.99
2022-09-11T02:12:37.930Z,99.99
2022-09-11T02:13:37.926Z,99.99
2022-09-11T02:14:37.943Z,99.99
2022-09-11T02:15:37.909Z,99.99
2022-09-11T02:16:38.205Z,99.99
2022-09-11T02:17:37.911Z,99.99
2022-09-11T02:18:37.889Z,99.72
2022-09-11T02:19:37.899Z,99.87
2022-09-11T02:20:37.910Z,99.82
2022-09-11T02:21:37.863Z,99.82
2022-09-11T02:22:37.862Z,99.82
2022-09-11T02:23:37.901Z,99.82
2022-09-11T02:24:37.870Z,99.72
2022-09-11T02:25:37.883Z,99.92
2022-09-11T02:26:37.823Z,99.99
2022-09-11T02:27:37.841Z,99.99
2022-09-11T02:28:37.806Z,99.92
2022-09-11T02:29:37.818Z,99.99
2022-09-11T02:30:37.811Z,99.99
2022-09-11T02:31:37.801Z,99.99
2022-09-11T02:32:37.773Z,99.99
2022-09-11T02:33:37.908Z,99.99
2022-09-11T02:34:37.792Z,99.99
2022-09-11T02:35:37.757Z,99.99
2022-09-11T02:36:37.745Z,99.99
2022-09-11T02:37:37.758Z,99.99
2022-09-11T02:38:37.729Z,99.99
2022-09-11T02:39:37.812Z,99.99
2022-09-11T02:40:37.749Z,99.99
2022-09-11T02:41:37.705Z,99.99
2022-09-11T02:42:37.703Z,99.99
2022-09-11T02:43:37.691Z,99.99
2022-09-11T02:44:37.719Z,99.99
2022-09-11T02:45:37.766Z,99.99
2022-09-11T02:46:37.673Z,99.99
2022-09-11T02:47:37.664Z,99.99
2022-09-11T02:48:37.679Z,99.99
2022-09-11T02:49:37.651Z,99.99
2022-09-11T02:50:38.940Z,99.99
2022-09-11T02:51:37.633Z,99.99
2022-09-11T02:52:37.635Z,99.99
2022-09-11T02:53:37.665Z,99.99
2022-09-11T02:54:37.612Z,99.99
2022-09-11T02:55:37.625Z,99.99
2022-09-11T02:56:37.595Z,99.99
2022-09-11T02:57:37.584Z,99.99
2022-09-11T02:58:37.580Z,99.99
2022-09-11T03:00:09.603Z,99.99
2022-09-11T03:00:37.617Z,99.99
2022-09-11T03:01:37.554Z,99.99
2022-09-11T03:02:37.550Z,99.99
2022-09-11T03:03:37.571Z,99.99
2022-09-11T03:04:37.533Z,99.99
2022-09-11T03:05:37.553Z,99.99
2022-09-11T03:06:37.519Z,99.99
2022-09-11T03:07:37.541Z,99.99
2022-09-11T03:08:37.505Z,99.99
2022-09-11T03:09:37.508Z,99.99
2022-09-11T03:10:37.514Z,99.99
2022-09-11T03:11:37.486Z,99.99
2022-09-11T03:12:37.476Z,99.99
2022-09-11T03:13:37.464Z,99.99
2022-09-11T03:14:37.451Z,99.99
2022-09-11T03:15:37.473Z,99.99
2022-09-11T03:16:37.456Z,99.99
2022-09-11T03:17:37.430Z,99.99
2022-09-11T03:18:37.423Z,99.99
2022-09-11T03:19:37.431Z,99.99
2022-09-11T03:20:37.431Z,99.99
2022-09-11T03:21:37.406Z,99.99
2022-09-11T03:22:37.400Z,99.99
2022-09-11T03:23:37.389Z,99.99
2022-09-11T03:24:37.377Z,99.99
2022-09-11T03:25:37.398Z,99.99
2022-09-11T03:26:37.358Z,99.99
2022-09-11T03:27:37.351Z,99.99
2022-09-11T03:28:37.338Z,99.99
2022-09-11T03:29:37.343Z,99.99
2022-09-11T03:30:37.423Z,99.99
2022-09-11T03:31:39.196Z,99.99
2022-09-11T03:32:38.316Z,99.99
2022-09-11T03:33:37.308Z,99.99
2022-09-11T03:34:37.303Z,99.99
2022-09-11T03:35:37.319Z,99.99
2022-09-11T03:36:37.283Z,99.99
2022-09-11T03:37:37.271Z,99.99
2022-09-11T03:38:37.267Z,99.99
2022-09-11T03:39:37.284Z,99.99
2022-09-11T03:40:37.270Z,99.99
2022-09-11T03:41:37.240Z,99.99
2022-09-11T03:42:37.232Z,99.99
2022-09-11T03:43:37.225Z,99.99
2022-09-11T03:44:37.302Z,99.99
2022-09-11T03:45:37.304Z,99.99
2022-09-11T03:46:37.198Z,99.99
2022-09-11T03:47:37.192Z,99.99
2022-09-11T03:48:37.188Z,99.99
2022-09-11T03:49:37.176Z,99.99
2022-09-11T03:50:37.201Z,99.99
2022-09-11T03:51:37.162Z,99.99
2022-09-11T03:52:37.156Z,99.99
2022-09-11T03:53:37.147Z,99.99
2022-09-11T03:54:37.144Z,99.99
2022-09-11T03:55:37.158Z,99.99
2022-09-11T03:56:37.129Z,99.99
2022-09-11T03:57:37.141Z,99.99
2022-09-11T03:58:37.112Z,99.99
2022-09-11T03:59:38.167Z,99.99
2022-09-11T04:00:37.122Z,99.99
2022-09-11T04:01:37.123Z,99.99
2022-09-11T04:02:37.090Z,99.99
2022-09-11T04:03:37.100Z,99.99
2022-09-11T04:04:37.068Z,99.99
2022-09-11T04:05:37.165Z,99.99
2022-09-11T04:06:37.048Z,99.99
2022-09-11T04:07:37.042Z,99.99
2022-09-11T04:08:37.035Z,99.99
2022-09-11T04:09:37.035Z,99.99
2022-09-11T04:10:37.042Z,99.99
2022-09-11T04:11:37.592Z,99.99
2022-09-11T04:12:38.001Z,99.99
2022-09-11T04:13:36.997Z,99.99
2022-09-11T04:14:36.981Z,99.99
2022-09-11T04:15:37.002Z,99.99
2022-09-11T04:16:36.997Z,99.99
2022-09-11T04:17:36.957Z,99.99
2022-09-11T04:18:36.957Z,99.99
2022-09-11T04:19:36.960Z,99.99
2022-09-11T04:20:36.987Z,99.99
2022-09-11T04:21:36.927Z,99.99
2022-09-11T04:22:36.925Z,99.99
2022-09-11T04:23:36.911Z,99.99
2022-09-11T04:24:36.905Z,99.99
2022-09-11T04:25:36.894Z,99.99
2022-09-11T04:26:36.920Z,99.99
2022-09-11T04:27:36.882Z,99.99
2022-09-11T04:28:36.871Z,99.99
2022-09-11T04:29:36.862Z,99.99
2022-09-11T04:30:36.856Z,99.99
2022-09-11T04:31:36.925Z,99.99
2022-09-11T04:32:36.837Z,99.99
2022-09-11T04:33:36.830Z,99.99
2022-09-11T04:34:36.824Z,99.99
2022-09-11T04:35:36.813Z,99.99
2022-09-11T04:36:36.829Z,99.99
2022-09-11T04:37:36.798Z,99.99
2022-09-11T04:38:36.796Z,99.99
2022-09-11T04:39:36.809Z,99.99
2022-09-11T04:40:36.775Z,99.99
2022-09-11T04:41:36.793Z,99.99
2022-09-11T04:42:36.759Z,99.99
2022-09-11T04:43:36.752Z,99.99
2022-09-11T04:44:36.743Z,99.99
2022-09-11T04:45:36.794Z,99.99
2022-09-11T04:46:36.752Z,99.99
2022-09-11T04:47:36.719Z,99.99
2022-09-11T04:48:36.718Z,99.99
2022-09-11T04:49:36.702Z,99.99
2022-09-11T04:50:36.698Z,99.99
2022-09-11T04:51:36.730Z,99.99
2022-09-11T04:52:36.688Z,99.99
2022-09-11T04:53:36.672Z,99.99
2022-09-11T04:54:36.669Z,99.99
2022-09-11T04:55:36.685Z,99.99
2022-09-11T04:56:36.654Z,99.99
2022-09-11T04:57:36.643Z,99.99
2022-09-11T04:58:36.637Z,99.99
2022-09-11T04:59:36.626Z,99.99
2022-09-11T05:00:36.643Z,99.99
2022-09-11T05:01:36.614Z,99.99
2022-09-11T05:02:36.605Z,99.99
2022-09-11T05:03:36.600Z,99.99
2022-09-11T05:04:36.590Z,99.99
2022-09-11T05:05:36.740Z,99.99
2022-09-11T05:06:36.573Z,99.99
2022-09-11T05:07:36.579Z,99.99
2022-09-11T05:08:36.577Z,99.99
2022-09-11T05:09:36.553Z,99.99
2022-09-11T05:10:36.576Z,99.99
2022-09-11T05:11:36.541Z,99.72
2022-09-11T05:12:36.530Z,99.99
2022-09-11T05:13:36.811Z,99.99
2022-09-11T05:14:36.514Z,99.99
2022-09-11T05:15:36.533Z,99.99
2022-09-11T05:16:36.539Z,99.99
2022-09-11T05:17:36.509Z,99.99
2022-09-11T05:18:36.480Z,99.99
2022-09-11T05:19:36.471Z,99.99
2022-09-11T05:20:36.464Z,99.99
2022-09-11T05:21:36.485Z,99.99
2022-09-11T05:22:36.451Z,99.99
2022-09-11T05:23:36.436Z,99.99
2022-09-11T05:24:36.433Z,99.99
2022-09-11T05:25:36.423Z,99.99
2022-09-11T05:26:36.440Z,99.99
2022-09-11T05:27:36.407Z,99.99
2022-09-11T05:28:36.538Z,99.92
2022-09-11T05:29:36.442Z,99.82
2022-09-11T05:30:36.400Z,99.92
2022-09-11T05:31:36.426Z,99.82
2022-09-11T05:32:36.498Z,99.99
2022-09-11T05:33:36.469Z,99.82
2022-09-11T05:34:36.360Z,99.72
2022-09-11T05:35:36.401Z,99.87
2022-09-11T05:36:36.360Z,99.87
2022-09-11T05:37:36.329Z,99.87
2022-09-11T05:38:36.321Z,99.99
2022-09-11T05:39:36.374Z,99.98
2022-09-11T05:40:36.305Z,99.87
2022-09-11T05:41:36.330Z,99.87
2022-09-11T05:42:36.302Z,99.98
2022-09-11T05:43:36.293Z,99.57
2022-09-11T05:44:36.282Z,99.47
2022-09-11T05:45:36.332Z,99.87
2022-09-11T05:46:36.282Z,99.99
2022-09-11T05:47:36.252Z,99.99
2022-09-11T05:48:36.245Z,99.57
2022-09-11T05:49:36.237Z,99.57
2022-09-11T05:50:36.228Z,99.02
2022-09-11T05:51:36.241Z,98.92
2022-09-11T05:52:36.209Z,99.16
2022-09-11T05:53:36.203Z,99.27
2022-09-11T05:54:36.199Z,99.16
2022-09-11T05:55:36.186Z,98.86
2022-09-11T05:56:36.201Z,99.32
2022-09-11T05:57:36.172Z,98.71
2022-09-11T05:58:36.163Z,99.02
2022-09-11T05:59:36.154Z,99.02
2022-09-11T06:00:36.153Z,99.42
2022-09-11T06:01:36.255Z,99.22
2022-09-11T06:02:36.130Z,99.27
2022-09-11T06:03:36.128Z,99.02
2022-09-11T06:04:36.122Z,99.07
2022-09-11T06:05:36.115Z,99.12
2022-09-11T06:06:36.130Z,99.22
2022-09-11T06:07:36.116Z,99.27
2022-09-11T06:08:36.098Z,99.18
2022-09-11T06:09:36.084Z,99.07
2022-09-11T06:10:36.075Z,99.18
2022-09-11T06:11:36.091Z,99.07
2022-09-11T06:12:36.052Z,98.36
2022-09-11T06:13:36.047Z,97.76
2022-09-11T06:14:36.040Z,97.16
2022-09-11T06:15:46.752Z,96.69
2022-09-11T06:16:38.065Z,97.14
2022-09-11T06:17:36.015Z,96.54
2022-09-11T06:18:36.012Z,97.05
2022-09-11T06:19:35.998Z,96.84
2022-09-11T06:20:35.992Z,96.34
2022-09-11T06:21:36.009Z,96.34
2022-09-11T06:22:35.986Z,95.63
2022-09-11T06:23:35.968Z,95.83
2022-09-11T06:24:35.959Z,96.13
2022-09-11T06:25:35.958Z,96.03
2022-09-11T06:26:35.971Z,96.54
2022-09-11T06:27:35.942Z,97.10
2022-09-11T06:28:35.946Z,97.30
2022-09-11T06:29:35.919Z,96.49
2022-09-11T06:30:35.956Z,96.49
2022-09-11T06:31:35.931Z,96.49
2022-09-11T06:32:35.902Z,96.39
2022-09-11T06:33:35.892Z,96.39
2022-09-11T06:34:35.886Z,95.74
2022-09-11T06:35:35.890Z,95.58
2022-09-11T06:36:35.896Z,95.14
2022-09-11T06:37:35.864Z,94.53
2022-09-11T06:38:35.852Z,94.12
2022-09-11T06:39:35.959Z,94.48
2022-09-11T06:40:35.838Z,94.48
2022-09-11T06:41:35.854Z,93.88
2022-09-11T06:42:35.821Z,93.01
2022-09-11T06:43:35.815Z,92.77
2022-09-11T06:44:35.811Z,92.36
2022-09-11T06:45:35.811Z,93.21
2022-09-11T06:46:35.820Z,92.66
2022-09-11T06:47:35.780Z,93.37
2022-09-11T06:48:35.773Z,93.37
2022-09-11T06:49:35.773Z,92.57
2022-09-11T06:50:36.962Z,91.55
2022-09-11T06:51:36.773Z,91.35
2022-09-11T06:52:35.758Z,92.10
2022-09-11T06:53:35.732Z,92.77
2022-09-11T06:54:35.722Z,92.91
2022-09-11T06:55:35.717Z,92.71
2022-09-11T06:56:35.734Z,92.81
2022-09-11T06:57:39.915Z,92.61
2022-09-11T06:58:37.692Z,92.46
2022-09-11T06:59:35.684Z,91.86
2022-09-11T07:00:35.674Z,92.36
2022-09-11T07:01:35.810Z,91.91
2022-09-11T07:02:35.664Z,91.31
2022-09-11T07:03:35.648Z,91.41
2022-09-11T07:04:35.641Z,91.21
2022-09-11T07:05:35.652Z,91.37
2022-09-11T07:06:35.657Z,89.79
2022-09-11T07:07:35.633Z,89.86
2022-09-11T07:08:35.613Z,91.06
2022-09-11T07:09:35.605Z,90.06
2022-09-11T07:10:35.597Z,91.27
2022-09-11T07:11:35.612Z,91.27
2022-09-11T07:12:35.589Z,90.91
2022-09-11T07:13:37.561Z,90.91
2022-09-11T07:14:36.573Z,91.51
2022-09-11T07:15:35.560Z,92.36
2022-09-11T07:16:35.658Z,91.86
2022-09-11T07:17:35.549Z,91.76
2022-09-11T07:18:35.540Z,91.46
2022-09-11T07:19:35.536Z,90.75
2022-09-11T07:20:35.524Z,91.51
2022-09-11T07:21:35.547Z,91.31
2022-09-11T07:22:35.510Z,91.01
2022-09-11T07:23:35.501Z,90.97
2022-09-11T07:24:35.492Z,91.17
2022-09-11T07:25:35.491Z,90.66
2022-09-11T07:26:35.516Z,91.33
2022-09-11T07:27:35.476Z,91.22
2022-09-11T07:28:35.462Z,91.49
2022-09-11T07:29:35.454Z,91.38
2022-09-11T07:30:35.500Z,90.13
2022-09-11T07:31:35.515Z,89.12
2022-09-11T07:32:35.487Z,89.03
2022-09-11T07:33:35.445Z,87.87
2022-09-11T07:34:35.416Z,87.59
2022-09-11T07:35:35.406Z,86.74
2022-09-11T07:36:35.433Z,84.55
2022-09-11T07:37:35.399Z,84.11
2022-09-11T07:38:35.384Z,84.11
2022-09-11T07:39:35.405Z,84.51
2022-09-11T07:40:35.368Z,84.31
2022-09-11T07:41:35.387Z,84.01
2022-09-11T07:42:35.358Z,84.81
2022-09-11T07:43:35.345Z,84.41
2022-09-11T07:44:35.341Z,84.67
2022-09-11T07:45:35.400Z,84.11
2022-09-11T07:46:35.330Z,84.57
2022-09-11T07:47:35.337Z,83.27
2022-09-11T07:48:35.307Z,83.77
2022-09-11T07:49:35.305Z,82.57
2022-09-11T07:50:35.293Z,82.06
2022-09-11T07:51:35.346Z,81.90
2022-09-11T07:52:35.301Z,81.50
2022-09-11T07:53:35.336Z,81.90
2022-09-11T07:54:35.264Z,82.60
2022-09-11T07:55:35.263Z,82.51
2022-09-11T07:56:35.252Z,82.90
2022-09-11T07:57:35.264Z,82.10
2022-09-11T07:58:35.235Z,82.51
2022-09-11T07:59:35.224Z,83.07
2022-09-11T08:00:37.097Z,81.96
2022-09-11T08:01:36.256Z,82.60
2022-09-11T08:02:35.281Z,83.47
2022-09-11T08:03:35.195Z,82.57
2022-09-11T08:04:35.187Z,82.57
2022-09-11T08:05:35.199Z,82.57
2022-09-11T08:06:35.177Z,81.76
2022-09-11T08:07:35.188Z,81.96
2022-09-11T08:08:35.154Z,81.20
2022-09-11T08:09:35.147Z,81.30
2022-09-11T08:10:35.137Z,82.51
2022-09-11T08:11:35.149Z,82.31
2022-09-11T08:12:35.153Z,81.34
2022-09-11T08:13:35.117Z,81.34
2022-09-11T08:14:35.133Z,80.57
2022-09-11T08:15:35.100Z,82.02
2022-09-11T08:16:35.150Z,82.14
2022-09-11T08:17:35.108Z,82.70
2022-09-11T08:18:35.078Z,81.36
2022-09-11T08:19:35.069Z,79.55
2022-09-11T08:20:35.053Z,81.56
2022-09-11T08:21:36.123Z,82.54
2022-09-11T08:22:35.074Z,81.74
2022-09-11T08:23:35.035Z,81.78
2022-09-11T08:24:35.032Z,81.88
2022-09-11T08:25:35.023Z,82.18
2022-09-11T08:26:35.011Z,83.45
2022-09-11T08:27:35.028Z,82.64
2022-09-11T08:28:34.998Z,82.60
2022-09-11T08:29:35.027Z,81.67
2022-09-11T08:30:35.003Z,81.46
2022-09-11T08:31:35.109Z,80.52
2022-09-11T08:32:35.089Z,81.42
2022-09-11T08:33:34.964Z,79.22
2022-09-11T08:34:34.960Z,80.52
2022-09-11T08:35:34.955Z,80.38
2022-09-11T08:36:34.941Z,79.98
2022-09-11T08:37:34.978Z,78.38
2022-09-11T08:38:34.934Z,78.98
2022-09-11T08:39:35.074Z,79.74
2022-09-11T08:40:34.920Z,80.04
2022-09-11T08:41:34.914Z,78.91
2022-09-11T08:42:34.923Z,77.50
2022-09-11T08:43:34.893Z,77.50
2022-09-11T08:44:38.535Z,77.70
2022-09-11T08:45:35.935Z,77.10
2022-09-11T08:46:34.881Z,77.40
2022-09-11T08:47:34.917Z,77.84
2022-09-11T08:48:34.893Z,78.68
2022-09-11T08:49:34.873Z,78.58
2022-09-11T08:50:34.835Z,78.18
2022-09-11T08:51:34.826Z,78.18
2022-09-11T08:52:34.850Z,78.18
2022-09-11T08:53:34.847Z,78.52
2022-09-11T08:54:34.802Z,79.92
2022-09-11T08:55:34.798Z,79.12
2022-09-11T08:56:34.790Z,78.11
2022-09-11T08:57:34.823Z,78.18
2022-09-11T08:58:34.777Z,78.08
2022-09-11T08:59:34.764Z,78.18
2022-09-11T09:00:34.805Z,78.31
2022-09-11T09:01:34.831Z,78.34
2022-09-11T09:02:34.772Z,77.58
2022-09-11T09:03:34.738Z,77.58
2022-09-11T09:04:34.729Z,78.08
2022-09-11T09:05:34.751Z,77.87
2022-09-11T09:06:34.714Z,77.87
2022-09-11T09:07:34.739Z,78.44
2022-09-11T09:08:34.708Z,78.10
2022-09-11T09:09:35.323Z,77.50
2022-09-11T09:10:35.690Z,77.50
2022-09-11T09:11:34.700Z,78.50
2022-09-11T09:12:34.700Z,77.74
2022-09-11T09:13:34.656Z,77.20
2022-09-11T09:14:34.680Z,79.38
2022-09-11T09:15:34.640Z,79.12
2022-09-11T09:16:34.677Z,78.35
2022-09-11T09:17:34.759Z,80.80
2022-09-11T09:18:34.615Z,81.74
2022-09-11T09:19:34.616Z,83.75
2022-09-11T09:20:34.644Z,81.78
2022-09-11T09:21:34.774Z,82.45
2022-09-11T09:22:34.616Z,83.45
2022-09-11T09:23:34.583Z,82.20
2022-09-11T09:24:34.616Z,81.36
2022-09-11T09:25:34.644Z,79.75
2022-09-11T09:26:38.374Z,79.36
2022-09-11T09:27:35.572Z,79.62
2022-09-11T09:28:34.548Z,79.32
2022-09-11T09:29:34.537Z,80.10
2022-09-11T09:30:34.531Z,83.55
2022-09-11T09:31:34.527Z,83.75
2022-09-11T09:32:34.541Z,82.31
2022-09-11T09:33:34.521Z,81.87
2022-09-11T09:34:34.501Z,80.52
2022-09-11T09:35:34.489Z,79.96
2022-09-11T09:36:34.485Z,78.93
2022-09-11T09:37:34.476Z,81.52
2022-09-11T09:38:34.513Z,83.53
2022-09-11T09:39:34.459Z,83.83
2022-09-11T09:40:34.451Z,81.62
2022-09-11T09:41:34.451Z,79.91
2022-09-11T09:42:34.463Z,78.20
2022-09-11T09:43:34.494Z,78.10
2022-09-11T09:44:34.454Z,81.39
2022-09-11T09:45:34.470Z,82.20
2022-09-11T09:46:34.407Z,84.41
2022-09-11T09:47:34.394Z,84.21
2022-09-11T09:48:34.423Z,83.81
2022-09-11T09:49:34.382Z,83.33
2022-09-11T09:50:34.375Z,81.98
2022-09-11T09:51:34.365Z,80.17
2022-09-11T09:52:34.387Z,79.33
2022-09-11T09:53:34.350Z,79.49
2022-09-11T09:54:34.345Z,79.60
2022-09-11T09:55:34.340Z,78.79
2022-09-11T09:56:34.355Z,78.45
2022-09-11T09:57:34.325Z,77.05
2022-09-11T09:58:34.485Z,77.25
2022-09-11T09:59:34.309Z,77.72
2022-09-11T10:00:34.296Z,77.41
2022-09-11T10:01:34.314Z,77.48
2022-09-11T10:02:34.317Z,75.84
2022-09-11T10:03:34.306Z,75.93
2022-09-11T10:04:34.271Z,74.73
2022-09-11T10:05:34.262Z,73.19
2022-09-11T10:06:34.260Z,74.10
2022-09-11T10:07:34.260Z,73.86
2022-09-11T10:08:34.301Z,73.76
2022-09-11T10:09:34.237Z,73.22
2022-09-11T10:10:34.212Z,73.09
2022-09-11T10:11:35.210Z,72.29
2022-09-11T10:12:34.205Z,72.19
2022-09-11T10:13:34.232Z,73.39
2022-09-11T10:14:51.166Z,73.66
2022-09-11T10:15:36.220Z,76.70
2022-09-11T10:16:34.176Z,74.20
2022-09-11T10:17:34.171Z,73.86
2022-09-11T10:18:34.301Z,74.37
2022-09-11T10:19:34.192Z,75.50
2022-09-11T10:20:34.235Z,74.84
2022-09-11T10:21:34.152Z,77.17
2022-09-11T10:22:34.130Z,76.31
2022-09-11T10:23:34.145Z,77.61
2022-09-11T10:24:34.112Z,75.71
2022-09-11T10:25:34.118Z,75.71
2022-09-11T10:26:34.112Z,75.81
2022-09-11T10:27:34.170Z,78.02
2022-09-11T10:28:34.231Z,77.75
2022-09-11T10:29:34.130Z,76.95
2022-09-11T10:30:34.092Z,76.85
2022-09-11T10:31:34.150Z,77.45
2022-09-11T10:32:34.055Z,77.85
2022-09-11T10:33:34.181Z,77.25
2022-09-11T10:34:34.037Z,76.15
2022-09-11T10:35:34.033Z,76.04
2022-09-11T10:36:34.075Z,76.78
2022-09-11T10:37:34.013Z,75.57
2022-09-11T10:38:36.949Z,74.23
2022-09-11T10:39:35.176Z,73.43
2022-09-11T10:40:34.075Z,73.70
2022-09-11T10:41:34.053Z,73.06
2022-09-11T10:42:33.986Z,72.16
2022-09-11T10:43:34.004Z,71.42
2022-09-11T10:44:34.345Z,71.83
2022-09-11T10:45:34.021Z,71.56
2022-09-11T10:46:41.134Z,71.96
2022-09-11T10:47:33.940Z,73.16
2022-09-11T10:48:33.969Z,73.36
2022-09-11T10:49:33.977Z,72.33
2022-09-11T10:50:33.990Z,71.29
2022-09-11T10:51:33.928Z,72.19
2022-09-11T10:52:33.917Z,71.46
2022-09-11T10:53:33.907Z,70.62
2022-09-11T10:54:33.929Z,68.93
2022-09-11T10:55:33.882Z,69.62
2022-09-11T10:56:33.916Z,69.53
2022-09-11T10:57:33.909Z,69.76
2022-09-11T10:58:33.972Z,70.56
2022-09-11T10:59:33.881Z,70.09
2022-09-11T11:00:33.836Z,71.29
2022-09-11T11:01:33.875Z,71.92
2022-09-11T11:02:33.831Z,71.86
2022-09-11T11:03:33.913Z,74.50
2022-09-11T11:04:33.827Z,75.54
2022-09-11T11:05:33.839Z,75.97
2022-09-11T11:06:33.813Z,76.94
2022-09-11T11:07:33.779Z,77.28
2022-09-11T11:08:33.916Z,78.25
2022-09-11T11:09:33.839Z,79.90
2022-09-11T11:10:33.777Z,77.89
2022-09-11T11:11:33.800Z,77.19
2022-09-11T11:12:33.746Z,77.28
2022-09-11T11:13:33.764Z,76.68
2022-09-11T11:14:34.467Z,77.42
2022-09-11T11:15:33.770Z,77.52
2022-09-11T11:16:33.726Z,78.06
2022-09-11T11:17:33.780Z,79.50
2022-09-11T11:18:34.852Z,79.64
2022-09-11T11:19:33.790Z,81.46
2022-09-11T11:20:33.687Z,81.56
2022-09-11T11:21:33.681Z,81.32
2022-09-11T11:22:33.802Z,81.12
2022-09-11T11:23:33.779Z,81.41
2022-09-11T11:24:33.690Z,79.61
2022-09-11T11:25:33.657Z,81.48
2022-09-11T11:26:33.632Z,79.87
2022-09-11T11:27:34.629Z,80.47
2022-09-11T11:28:33.681Z,79.06
2022-09-11T11:29:34.559Z,81.04
2022-09-11T11:30:33.706Z,81.40
2022-09-11T11:31:33.754Z,79.09
2022-09-11T11:32:33.621Z,78.59
2022-09-11T11:33:33.585Z,77.02
2022-09-11T11:34:33.603Z,78.46
2022-09-11T11:35:33.573Z,78.40
2022-09-11T11:36:33.567Z,79.64
2022-09-11T11:37:33.657Z,78.64
2022-09-11T11:38:33.663Z,78.58
2022-09-11T11:39:33.597Z,80.58
2022-09-11T11:40:33.571Z,82.16
2022-09-11T11:41:34.641Z,80.71
2022-09-11T11:42:33.630Z,78.34
2022-09-11T11:43:33.506Z,80.29
2022-09-11T11:44:33.524Z,79.99
2022-09-11T11:45:33.603Z,78.47
2022-09-11T11:46:33.488Z,79.94
2022-09-11T11:47:33.569Z,79.85
2022-09-11T11:48:33.498Z,78.94
2022-09-11T11:49:33.491Z,79.04
2022-09-11T11:50:33.530Z,78.80
2022-09-11T11:51:33.444Z,77.70
2022-09-11T11:52:33.438Z,79.87
2022-09-11T11:53:33.459Z,77.50
2022-09-11T11:54:33.584Z,77.96
2022-09-11T11:55:33.498Z,77.86
2022-09-11T11:56:33.481Z,77.46
2022-09-11T11:57:33.406Z,76.21
2022-09-11T11:58:33.449Z,77.72
2022-09-11T11:59:33.647Z,77.48
2022-09-11T12:00:33.373Z,77.45
2022-09-11T12:01:33.383Z,77.05
2022-09-11T12:02:33.357Z,76.41
2022-09-11T12:03:33.506Z,73.16
2022-09-11T12:04:33.407Z,72.33
2022-09-11T12:05:33.379Z,70.66
2022-09-11T12:06:33.335Z,72.30
2022-09-11T12:07:33.322Z,71.59
2022-09-11T12:08:33.418Z,72.47
2022-09-11T12:09:34.077Z,72.00
2022-09-11T12:10:34.302Z,74.30
2022-09-11T12:11:33.281Z,74.07
2022-09-11T12:12:33.291Z,74.03
2022-09-11T12:13:33.299Z,71.39
2022-09-11T12:14:33.295Z,70.03
2022-09-11T12:15:33.263Z,69.43
2022-09-11T12:16:33.371Z,69.32
2022-09-11T12:17:33.251Z,69.82
2022-09-11T12:18:33.235Z,71.16
2022-09-11T12:19:33.381Z,71.12
2022-09-11T12:20:34.292Z,71.26
2022-09-11T12:21:33.236Z,73.27
2022-09-11T12:22:33.206Z,72.40
2022-09-11T12:23:33.215Z,72.50
2022-09-11T12:24:33.228Z,73.47
2022-09-11T12:25:33.220Z,73.40
2022-09-11T12:26:33.351Z,70.96
2022-09-11T12:27:33.161Z,73.27
2022-09-11T12:28:33.223Z,74.80
2022-09-11T12:29:33.268Z,74.87
2022-09-11T12:30:33.169Z,73.33
2022-09-11T12:31:33.196Z,72.36
2022-09-11T12:32:33.145Z,71.86
2022-09-11T12:33:33.106Z,71.30
2022-09-11T12:34:33.181Z,73.50
2022-09-11T12:35:33.148Z,72.50
2022-09-11T12:36:33.159Z,72.40
2022-09-11T12:37:33.093Z,71.77
2022-09-11T12:38:33.170Z,71.89
2022-09-11T12:39:33.289Z,71.46
2022-09-11T12:40:33.083Z,69.73
2022-09-11T12:41:33.109Z,69.29
2022-09-11T12:42:33.165Z,67.63
2022-09-11T12:43:33.107Z,64.77
2022-09-11T12:44:33.052Z,65.83
2022-09-11T12:45:33.114Z,63.64
2022-09-11T12:46:33.017Z,62.94
2022-09-11T12:47:33.002Z,63.54
2022-09-11T12:48:32.998Z,64.31
2022-09-11T12:49:33.012Z,64.18
2022-09-11T12:50:33.140Z,63.25
2022-09-11T12:51:32.981Z,62.55
2022-09-11T12:52:33.003Z,62.75